Burt, New York
Current Conditions -  °F | °C
As of 1:16 PM on Sunday 25 Jan 2015 (Local Time) from KIAG Reporting Station
Light Snow Light Snow  
Wind Chill: 12°   Ceiling: 25000
Heat Index: 19°   Visibility: 10mi
Dew Point: 10°   Wind: 5mph
Humidity: 68%   Direction: 90°E
Pressure: 29.92"   Gusts: NA
Location:  43.32°N, 78.71°W
Report Text: KIAG 251816Z 09004KT 10SM -SN SCT020 BKN250 M07/M12 A2992 RMK AO2 P0000 T10721122 $
Loading
Personal Weather Stations






























Interactive Weather Map New forecast layout! Learn more

10-Day Weather Forecast

Advertisements
Track Severe Weather on mobile